Time;durP1;ratioP1;P1;durP2;ratioP2;P2;SDS_P1;SDS_P2;PMS_P1;PMS_P2;Temp;Humidity;BMP_temperature;BMP_pressure;BME280_temperature;BME280_humidity;BME280_pressure;Samples;Min_cycle;Max_cycle;Signal;HPM_P1;HPM_P2
2022/01/04 00:00:07;;;;;;;20.55;12.80;;;;;;;10.95;47.97;101105.34;5029612;28;20449;-70
2022/01/04 00:02:34;;;;;;;16.63;11.60;;;;;;;10.69;48.58;101111.81;5029166;28;20414;-70
2022/01/04 00:05:01;;;;;;;16.67;10.38;;;;;;;10.56;49.12;101101.28;5029364;28;20986;-70
2022/01/04 00:07:30;;;;;;;12.57;8.73;;;;;;;10.54;49.04;101108.53;5029473;28;20491;-70
2022/01/04 00:09:57;;;;;;;10.95;7.97;;;;;;;10.42;49.49;101105.00;5029041;28;20493;-71
2022/01/04 00:15:10;;;;;;;15.00;11.45;;;;;;;10.60;48.93;101102.75;4995647;28;20460;-70
2022/01/04 00:17:37;;;;;;;18.63;12.70;;;;;;;10.65;48.55;101105.06;5029095;28;20947;-70
2022/01/04 00:20:07;;;;;;;14.47;10.03;;;;;;;10.65;48.63;101099.78;5028967;28;20458;-70
2022/01/04 00:22:35;;;;;;;18.70;12.75;;;;;;;10.67;48.56;101095.19;5029012;28;20468;-70
2022/01/04 00:25:02;;;;;;;37.88;21.83;;;;;;;10.55;48.91;101097.81;5028998;28;20843;-70
2022/01/04 00:27:29;;;;;;;13.20;9.55;;;;;;;10.32;49.61;101102.22;5028889;28;20501;-70
2022/01/04 00:29:56;;;;;;;12.80;9.32;;;;;;;10.45;49.20;101109.25;5028787;28;20441;-70
2022/01/04 00:32:23;;;;;;;18.48;12.35;;;;;;;10.58;48.74;101110.84;5029419;28;20406;-70
2022/01/04 00:34:51;;;;;;;16.73;11.57;;;;;;;10.59;48.80;101117.81;5028983;28;20506;-69
2022/01/04 00:37:18;;;;;;;15.18;10.60;;;;;;;10.62;48.70;101112.28;5028993;28;20422;-70
2022/01/04 00:39:46;;;;;;;12.93;9.70;;;;;;;10.34;49.52;101117.97;5031381;28;20448;-69
2022/01/04 00:42:13;;;;;;;19.10;14.20;;;;;;;10.38;49.39;101112.34;5033134;28;20406;-69
2022/01/04 00:44:40;;;;;;;9.93;8.32;;;;;;;10.42;49.24;101115.59;5032757;28;20420;-70
2022/01/04 00:47:09;;;;;;;11.95;8.88;;;;;;;10.54;49.19;101109.38;5032633;28;20551;-70
2022/01/04 00:49:35;;;;;;;9.45;7.22;;;;;;;10.48;49.37;101123.06;5032598;28;20434;-70
2022/01/04 00:52:03;;;;;;;10.18;8.20;;;;;;;10.52;49.16;101123.69;5032624;28;20417;-70
2022/01/04 00:54:30;;;;;;;9.02;6.75;;;;;;;10.13;50.20;101117.75;5032572;28;20871;-69
2022/01/04 00:56:58;;;;;;;10.52;7.45;;;;;;;10.30;49.90;101117.38;5032524;28;21003;-70
2022/01/04 00:59:25;;;;;;;13.82;9.60;;;;;;;10.39;49.76;101113.19;5032416;28;20449;-70
2022/01/04 01:01:52;;;;;;;23.92;17.02;;;;;;;10.33;49.60;101117.13;5032847;28;20425;-71
2022/01/04 01:04:19;;;;;;;9.65;7.95;;;;;;;10.40;49.44;101118.38;5047688;28;20989;-70
2022/01/04 01:06:46;;;;;;;10.52;8.15;;;;;;;10.15;50.24;101108.72;5032288;28;20418;-70
2022/01/04 01:09:13;;;;;;;12.27;8.67;;;;;;;10.19;50.04;101104.91;5032270;28;20463;-70
2022/01/04 01:11:40;;;;;;;10.43;8.23;;;;;;;10.18;50.28;101108.53;5013341;28;21171;-70
2022/01/04 01:14:08;;;;;;;10.18;7.10;;;;;;;9.97;50.58;101115.41;5032171;28;20410;-70
2022/01/04 01:16:35;;;;;;;8.07;7.17;;;;;;;9.83;51.09;101097.88;5032103;28;20494;-70
2022/01/04 01:19:02;;;;;;;12.55;9.77;;;;;;;10.12;50.47;101106.34;5032337;28;20485;-70
2022/01/04 01:21:29;;;;;;;10.82;8.38;;;;;;;10.34;49.87;101107.38;5032010;28;20500;-70
2022/01/04 01:23:56;;;;;;;11.02;8.57;;;;;;;10.24;50.06;101112.53;5032224;28;20424;-70
2022/01/04 01:26:23;;;;;;;11.48;8.20;;;;;;;10.27;49.82;101111.44;5032254;28;20496;-70
2022/01/04 01:28:50;;;;;;;10.20;7.47;;;;;;;10.05;50.54;101106.91;5031875;28;20502;-70
2022/01/04 01:31:19;;;;;;;10.13;7.77;;;;;;;10.09;50.39;101103.06;5031775;28;20517;-69
2022/01/04 01:33:46;;;;;;;10.25;8.43;;;;;;;10.15;50.24;101097.31;5031763;28;20445;-70
2022/01/04 01:36:13;;;;;;;8.55;7.65;;;;;;;10.25;50.06;101100.13;5047350;28;20446;-70
2022/01/04 01:38:39;;;;;;;11.63;9.20;;;;;;;10.21;50.17;101099.50;5032017;28;20493;-70
2022/01/04 01:41:06;;;;;;;13.50;9.93;;;;;;;10.23;50.29;101098.41;5032029;28;20425;-70
2022/01/04 01:43:33;;;;;;;13.45;9.55;;;;;;;9.96;50.62;101082.81;5031658;28;20497;-70
2022/01/04 01:46:00;;;;;;;12.80;8.75;;;;;;;9.87;51.06;101086.13;5031552;28;20418;-70
2022/01/04 01:48:29;;;;;;;9.80;7.60;;;;;;;10.05;50.67;101080.44;5031668;28;20422;-70
2022/01/04 01:50:56;;;;;;;9.07;7.13;;;;;;;10.25;49.95;101076.28;5031109;28;20430;-70
2022/01/04 01:53:23;;;;;;;10.85;8.10;;;;;;;10.28;49.88;101073.38;5031545;28;21341;-70
2022/01/04 01:55:51;;;;;;;10.13;7.80;;;;;;;9.89;50.81;101057.75;5031694;28;20418;-70
2022/01/04 01:58:18;;;;;;;11.10;7.82;;;;;;;10.16;50.28;101057.50;5031338;28;21023;-70
2022/01/04 02:00:44;;;;;;;12.35;8.63;;;;;;;10.27;50.07;101058.47;5031322;28;20522;-70
2022/01/04 02:03:11;;;;;;;11.05;8.98;;;;;;;10.35;49.67;101056.97;5031275;28;20410;-70
2022/01/04 02:05:40;;;;;;;12.93;9.67;;;;;;;10.19;50.14;101056.41;5031311;28;20421;-70
2022/01/04 02:08:08;;;;;;;14.45;9.80;;;;;;;10.14;50.18;101046.16;5031239;28;20920;-71
2022/01/04 02:10:35;;;;;;;11.40;8.32;;;;;;;9.68;51.26;101046.97;5031045;28;20517;-70
2022/01/04 02:13:02;;;;;;;9.53;7.50;;;;;;;9.70;51.65;101052.13;5011868;28;20421;-70
2022/01/04 02:15:33;;;;;;;9.45;7.45;;;;;;;10.02;50.69;101055.03;5031285;28;20422;-71
2022/01/04 02:18:00;;;;;;;10.30;8.05;;;;;;;9.72;51.22;101050.22;5031323;28;20421;-70
2022/01/04 02:20:28;;;;;;;9.98;7.80;;;;;;;9.41;52.09;101063.88;5031244;28;20433;-70
2022/01/04 02:22:55;;;;;;;10.88;7.82;;;;;;;9.30;52.28;101053.22;5030960;28;20509;-70
2022/01/04 02:25:23;;;;;;;11.30;9.27;;;;;;;9.21;52.67;101060.03;5030847;28;21041;-70
2022/01/04 02:27:50;;;;;;;10.10;8.00;;;;;;;9.46;52.07;101049.50;5031081;28;20418;-70
2022/01/04 02:30:19;;;;;;;11.40;9.27;;;;;;;9.64;51.42;101045.50;5030626;28;20438;-70
2022/01/04 02:32:47;;;;;;;10.45;8.13;;;;;;;9.63;51.38;101052.59;5030732;28;20509;-70
2022/01/04 02:35:16;;;;;;;11.45;9.25;;;;;;;9.37;52.09;101059.78;5030643;28;20413;-71
2022/01/04 02:37:45;;;;;;;11.30;8.82;;;;;;;9.06;53.17;101055.81;5030644;28;20418;-70
2022/01/04 02:40:12;;;;;;;11.35;9.15;;;;;;;8.86;53.79;101054.63;5030865;28;20497;-70
2022/01/04 02:42:39;;;;;;;13.75;10.73;;;;;;;9.23;53.07;101065.22;5030896;28;20504;-70
2022/01/04 02:45:08;;;;;;;11.93;9.25;;;;;;;9.53;52.08;101075.38;5030875;28;20422;-70
2022/01/04 02:47:36;;;;;;;11.80;9.17;;;;;;;9.54;51.94;101060.34;5030206;28;20418;-70
2022/01/04 02:50:03;;;;;;;12.60;10.50;;;;;;;9.53;51.93;101041.00;5030274;28;20513;-70
2022/01/04 02:52:30;;;;;;;11.15;8.52;;;;;;;9.48;52.09;101039.66;5030592;28;20414;-70
2022/01/04 02:54:58;;;;;;;10.70;8.63;;;;;;;9.56;51.90;101048.69;5030652;28;20521;-70
2022/01/04 02:57:25;;;;;;;11.45;9.05;;;;;;;9.57;51.68;101057.47;5030230;28;20796;-70
2022/01/04 02:59:52;;;;;;;11.98;9.63;;;;;;;9.63;51.78;101044.66;5030517;28;20426;-70
2022/01/04 03:02:19;;;;;;;13.48;9.50;;;;;;;9.54;51.79;101040.03;5029665;28;20509;-71
2022/01/04 03:04:46;;;;;;;14.90;9.40;;;;;;;9.60;51.68;101042.22;5030437;28;20410;-70
2022/01/04 03:07:13;;;;;;;12.18;9.90;;;;;;;9.56;52.12;101042.56;5030180;28;20510;-70
2022/01/04 03:09:40;;;;;;;11.32;9.32;;;;;;;9.59;51.82;101040.56;5030362;28;20463;-70
2022/01/04 03:12:10;;;;;;;12.60;9.57;;;;;;;9.79;51.34;101049.66;4992002;28;20493;-70
2022/01/04 03:14:37;;;;;;;12.13;9.97;;;;;;;9.74;51.36;101040.38;5030201;28;20868;-70
2022/01/04 03:17:05;;;;;;;11.15;8.15;;;;;;;9.71;51.48;101038.81;5029876;28;20916;-70
2022/01/04 03:19:32;;;;;;;9.60;8.40;;;;;;;9.77;51.27;101041.00;5030180;28;20441;-70
2022/01/04 03:21:59;;;;;;;13.88;9.88;;;;;;;10.01;50.93;101042.75;5030159;28;20493;-70
2022/01/04 03:24:26;;;;;;;12.35;9.75;;;;;;;10.12;50.46;101032.22;5029792;28;20828;-71
2022/01/04 03:26:53;;;;;;;17.10;12.98;;;;;;;10.13;50.47;101035.69;5029791;28;20943;-70
2022/01/04 03:29:22;;;;;;;12.40;10.27;;;;;;;10.08;50.48;101033.41;5012371;28;20422;-70
2022/01/04 03:31:49;;;;;;;12.85;10.02;;;;;;;10.13;50.62;101033.88;5029662;28;20789;-70
2022/01/04 03:34:16;;;;;;;14.27;11.27;;;;;;;10.08;50.48;101025.47;5029987;28;20493;-71
2022/01/04 03:36:43;;;;;;;12.80;10.23;;;;;;;10.37;49.82;101033.84;5029452;28;20442;-70
2022/01/04 03:39:12;;;;;;;12.93;9.55;;;;;;;10.43;49.67;101028.06;5029441;28;20413;-70
2022/01/04 03:41:42;;;;;;;11.27;9.88;;;;;;;10.15;50.06;101024.00;5029551;28;20418;-70
2022/01/04 03:44:10;;;;;;;10.70;9.60;;;;;;;10.25;50.11;101033.91;5029551;28;21108;-70
2022/01/04 03:46:39;;;;;;;12.13;9.80;;;;;;;10.35;49.85;101051.66;5029751;28;21004;-70
2022/01/04 03:49:06;;;;;;;10.85;9.13;;;;;;;10.54;49.26;101045.81;5029932;28;20501;-70
2022/01/04 03:51:33;;;;;;;11.10;9.30;;;;;;;10.46;49.50;101053.47;5028970;28;20434;-70
2022/01/04 03:54:02;;;;;;;13.25;10.52;;;;;;;10.55;49.24;101047.47;5029394;28;20450;-70
2022/01/04 03:56:29;;;;;;;11.95;9.18;;;;;;;10.49;49.55;101050.59;5029336;28;20421;-70
2022/01/04 03:58:56;;;;;;;11.45;8.50;;;;;;;10.35;49.80;101045.53;5029530;28;20497;-70
2022/01/04 04:01:23;;;;;;;10.93;9.10;;;;;;;10.44;49.59;101042.16;5029226;28;20991;-70
2022/01/04 04:03:52;;;;;;;12.73;10.35;;;;;;;10.32;49.77;101040.44;5029675;28;20490;-70
2022/01/04 04:06:19;;;;;;;44.72;37.30;;;;;;;10.41;49.73;101045.06;5029210;28;20501;-71
2022/01/04 04:08:46;;;;;;;25.00;20.45;;;;;;;10.43;49.44;101036.03;5011697;28;20493;-70
2022/01/04 04:11:13;;;;;;;13.93;10.80;;;;;;;10.53;49.07;101033.50;4993930;28;21440;-72
2022/01/04 04:13:40;;;;;;;15.73;13.30;;;;;;;10.52;49.41;101034.50;5028862;28;20501;-70
2022/01/04 04:16:07;;;;;;;11.77;10.37;;;;;;;10.44;49.44;101039.50;5033262;28;20575;-70
2022/01/04 04:18:34;;;;;;;15.00;11.82;;;;;;;10.49;49.30;101032.06;5033560;28;20497;-69
2022/01/04 04:21:03;;;;;;;15.48;12.25;;;;;;;10.59;49.07;101026.91;5033558;28;20875;-69
2022/01/04 04:23:30;;;;;;;14.85;12.75;;;;;;;10.48;49.39;101025.06;5033534;28;20410;-70
2022/01/04 04:25:57;;;;;;;17.35;14.07;;;;;;;10.50;49.39;101022.31;5033117;28;20505;-70
2022/01/04 04:28:24;;;;;;;13.93;12.07;;;;;;;10.57;48.83;101021.72;5033439;28;20493;-70
2022/01/04 04:30:51;;;;;;;14.90;12.15;;;;;;;10.61;49.08;101023.16;5033233;28;20429;-70
2022/01/04 04:33:18;;;;;;;17.33;13.13;;;;;;;10.48;49.41;101032.16;5033263;28;20467;-71
2022/01/04 04:35:45;;;;;;;16.52;13.32;;;;;;;10.37;49.68;101027.72;5032967;28;20506;-70
2022/01/04 04:38:13;;;;;;;16.38;13.13;;;;;;;10.30;49.72;101024.69;5033232;28;20418;-70
2022/01/04 04:40:40;;;;;;;19.50;17.60;;;;;;;10.51;49.22;101024.84;5048410;28;20492;-70
2022/01/04 04:43:07;;;;;;;15.98;12.65;;;;;;;10.48;49.08;101034.81;5048371;28;20421;-70
2022/01/04 04:45:34;;;;;;;16.30;13.30;;;;;;;10.39;49.63;101031.09;5032736;28;20409;-70
2022/01/04 04:48:01;;;;;;;15.93;13.45;;;;;;;10.44;49.39;101034.22;5032693;28;20426;-70
2022/01/04 04:50:29;;;;;;;18.73;14.30;;;;;;;10.34;49.44;101038.53;5032942;28;20493;-70
2022/01/04 04:52:57;;;;;;;17.35;14.00;;;;;;;10.34;49.78;101034.09;5032657;28;20855;-70
2022/01/04 04:55:25;;;;;;;22.52;16.65;;;;;;;10.25;49.96;101040.06;5032376;28;20422;-70
2022/01/04 04:57:52;;;;;;;23.23;17.27;;;;;;;10.36;49.59;101039.25;5031765;28;20406;-71
2022/01/04 05:00:19;;;;;;;19.15;17.02;;;;;;;10.38;49.56;101042.63;5031713;28;20478;-69
2022/01/04 05:02:46;;;;;;;19.50;17.13;;;;;;;10.43;49.49;101036.03;5031694;28;20501;-71
2022/01/04 05:05:13;;;;;;;25.20;20.87;;;;;;;10.38;49.69;101035.53;5032328;28;20558;-70
2022/01/04 05:07:40;;;;;;;27.80;22.45;;;;;;;10.39;49.70;101041.69;5047875;28;20501;-70
2022/01/04 05:10:09;;;;;;;20.77;18.13;;;;;;;10.28;49.76;101039.84;5032214;28;20845;-70
2022/01/04 05:12:37;;;;;;;23.27;18.10;;;;;;;10.18;49.99;101038.84;5026319;28;20434;-70
2022/01/04 05:15:05;;;;;;;21.88;17.30;;;;;;;10.22;49.97;101025.25;5031847;28;20493;-69
2022/01/04 05:17:32;;;;;;;23.38;16.88;;;;;;;10.20;50.17;101028.97;5031695;28;20519;-71
2022/01/04 05:19:59;;;;;;;21.95;17.35;;;;;;;10.19;49.95;101020.16;5032038;28;20796;-70
2022/01/04 05:22:26;;;;;;;21.70;17.42;;;;;;;10.19;49.87;101022.81;5032310;28;20406;-71
2022/01/04 05:24:53;;;;;;;24.97;20.80;;;;;;;10.09;50.37;101013.06;5031285;28;20502;-69
2022/01/04 05:27:20;;;;;;;42.80;33.85;;;;;;;10.08;50.04;101014.88;5031763;28;20410;-70
2022/01/04 05:29:48;;;;;;;37.85;29.20;;;;;;;10.09;50.33;101016.53;5031961;28;20497;-70
2022/01/04 05:32:15;;;;;;;32.65;24.95;;;;;;;10.16;50.17;101020.41;5031426;28;20432;-70
2022/01/04 05:34:42;;;;;;;32.75;24.60;;;;;;;10.07;50.20;101015.81;5031418;28;20867;-70
2022/01/04 05:37:09;;;;;;;36.40;27.42;;;;;;;10.02;50.43;101017.97;5031557;28;20932;-71
2022/01/04 05:39:36;;;;;;;30.35;21.95;;;;;;;10.02;50.34;101018.81;5031473;28;20847;-70
2022/01/04 05:42:04;;;;;;;41.20;22.88;;;;;;;9.95;50.66;101020.22;5031886;28;20453;-70
2022/01/04 05:44:31;;;;;;;41.85;24.80;;;;;;;9.74;51.15;101012.09;5031448;28;20497;-70
2022/01/04 05:47:00;;;;;;;46.17;27.10;;;;;;;9.85;51.12;101003.34;5031652;28;20440;-70
2022/01/04 05:49:27;;;;;;;42.30;24.67;;;;;;;9.82;51.14;101001.78;5032006;28;20521;-69
2022/01/04 05:51:54;;;;;;;50.00;27.40;;;;;;;9.79;51.71;100995.88;5046882;28;20433;-70
2022/01/04 05:54:21;;;;;;;43.97;30.08;;;;;;;9.76;51.38;100990.84;5031557;28;20422;-71
2022/01/04 05:56:47;;;;;;;46.58;31.30;;;;;;;9.78;51.05;100984.47;5031021;28;20425;-69
2022/01/04 05:59:15;;;;;;;52.63;29.00;;;;;;;9.76;51.52;100989.03;5031310;28;20505;-69
2022/01/04 06:01:42;;;;;;;54.63;29.13;;;;;;;9.79;51.29;100991.47;5031001;28;20446;-69
2022/01/04 06:04:11;;;;;;;39.55;23.25;;;;;;;9.42;52.17;100990.69;5030243;28;20489;-70
2022/01/04 06:06:40;;;;;;;42.63;24.70;;;;;;;9.58;51.83;100990.41;5029946;28;20460;-69
2022/01/04 06:09:08;;;;;;;33.33;22.40;;;;;;;9.55;51.93;100990.63;5031230;28;20418;-69
2022/01/04 06:11:56;;;;;;;40.35;29.05;;;;;;;9.99;50.97;100994.38;5030823;28;20467;-69
2022/01/04 06:17:10;;;;;;;56.72;40.00;;;;;;;10.34;49.89;100985.56;5030794;28;20895;-69
2022/01/04 06:19:39;;;;;;;49.40;31.20;;;;;;;10.51;49.40;100986.91;5030889;28;20465;-70
2022/01/04 06:22:06;;;;;;;42.27;30.10;;;;;;;10.46;49.61;100979.31;5030552;28;20998;-70
2022/01/04 06:24:33;;;;;;;37.47;27.08;;;;;;;10.68;48.85;100973.16;5013010;28;20438;-69
2022/01/04 06:27:01;;;;;;;35.80;28.45;;;;;;;11.21;47.47;100964.50;5030853;28;20506;-69
2022/01/04 06:29:28;;;;;;;46.72;38.75;;;;;;;11.82;46.05;100969.25;5030717;28;20418;-69
2022/01/04 06:31:55;;;;;;;49.45;42.45;;;;;;;12.40;44.85;100968.75;5030750;28;20434;-70
2022/01/04 06:34:22;;;;;;;43.80;33.38;;;;;;;13.13;43.19;100971.22;5030383;28;20509;-69
2022/01/04 06:36:50;;;;;;;60.00;40.10;;;;;;;14.13;41.29;100970.94;5012590;28;20429;-69
2022/01/04 06:39:17;;;;;;;63.53;42.90;;;;;;;14.91;39.37;100969.81;5030386;28;20486;-70
2022/01/04 06:41:44;;;;;;;50.33;34.10;;;;;;;15.67;37.89;100969.41;5030001;28;20418;-69
2022/01/04 06:44:11;;;;;;;39.35;30.13;;;;;;;16.63;36.41;100976.56;5030284;28;20419;-69
2022/01/04 06:46:44;;;;;;;38.05;26.63;;;;;;;16.60;35.54;100972.38;5030261;28;20505;-70
2022/01/04 06:49:12;;;;;;;35.28;30.83;;;;;;;17.15;34.71;100972.94;5030588;28;20509;-69
2022/01/04 06:51:39;;;;;;;28.80;25.40;;;;;;;17.79;33.43;100965.97;5030369;28;20476;-70
2022/01/04 06:54:07;;;;;;;38.97;28.05;;;;;;;18.87;32.19;100969.25;5030089;28;20461;-69
2022/01/04 06:56:35;;;;;;;78.55;35.08;;;;;;;19.22;31.33;100967.88;5029721;28;21019;-70
2022/01/04 06:59:02;;;;;;;49.75;25.00;;;;;;;19.94;30.32;100969.38;5030352;28;20517;-68
2022/01/04 07:01:29;;;;;;;35.10;20.23;;;;;;;21.58;27.97;100961.97;5030472;28;20410;-69
2022/01/04 07:03:56;;;;;;;52.13;26.47;;;;;;;21.91;27.26;100962.22;5030250;28;20421;-70
2022/01/04 07:06:23;;;;;;;21.83;14.70;;;;;;;23.10;25.82;100969.34;5030023;28;20501;-70
2022/01/04 07:08:50;;;;;;;17.88;13.50;;;;;;;24.02;24.67;100956.13;5030042;28;20421;-69
2022/01/04 07:11:19;;;;;;;16.70;12.73;;;;;;;24.33;23.62;100960.88;5029893;28;21018;-70
2022/01/04 07:13:46;;;;;;;17.65;12.95;;;;;;;25.05;22.49;100963.53;5029782;28;20497;-70
2022/01/04 07:16:13;;;;;;;18.00;13.40;;;;;;;25.38;22.47;100952.53;5030158;28;20418;-70
2022/01/04 07:18:40;;;;;;;24.80;14.27;;;;;;;26.82;20.95;100961.59;5029705;28;20988;-70
2022/01/04 07:21:07;;;;;;;20.57;17.63;;;;;;;27.65;20.13;100966.25;5029802;28;20494;-70
2022/01/04 07:23:34;;;;;;;22.35;18.88;;;;;;;29.07;18.84;100974.28;5030132;28;20490;-70
2022/01/04 07:26:01;;;;;;;20.40;16.08;;;;;;;29.81;18.11;100976.19;5030075;28;20414;-70
2022/01/04 07:28:31;;;;;;;22.75;20.17;;;;;;;30.47;17.26;100973.59;5029675;28;20964;-68
2022/01/04 07:30:58;;;;;;;21.27;17.20;;;;;;;31.06;16.90;100990.16;5029687;28;20414;-68
2022/01/04 07:33:25;;;;;;;16.25;14.10;;;;;;;29.09;17.79;100993.97;5029549;28;20426;-68
2022/01/04 07:35:52;;;;;;;22.25;18.92;;;;;;;28.60;18.52;100996.25;5029603;28;20517;-68
2022/01/04 07:38:19;;;;;;;23.45;20.55;;;;;;;28.71;18.36;100998.13;5029538;28;20419;-68
2022/01/04 07:40:46;;;;;;;24.90;21.02;;;;;;;30.14;17.23;101002.63;5029401;28;20497;-68
2022/01/04 07:43:14;;;;;;;23.05;20.35;;;;;;;29.92;17.26;101000.66;5029213;28;20414;-68
2022/01/04 07:45:43;;;;;;;22.92;20.45;;;;;;;29.07;17.83;100999.66;5029226;28;20414;-68
2022/01/04 07:48:11;;;;;;;18.77;16.77;;;;;;;29.34;17.59;101002.66;5028817;28;20501;-69
2022/01/04 07:50:38;;;;;;;16.05;14.45;;;;;;;30.08;16.50;101009.09;5029089;28;20805;-68
2022/01/04 07:53:07;;;;;;;19.65;17.58;;;;;;;28.62;17.97;101005.84;5029491;28;20434;-69
2022/01/04 07:55:35;;;;;;;27.15;20.25;;;;;;;31.00;16.38;100996.66;5029490;28;20423;-69
2022/01/04 07:58:02;;;;;;;18.50;16.60;;;;;;;32.17;15.32;100989.78;5029113;28;20878;-69
2022/01/04 08:00:30;;;;;;;24.23;18.17;;;;;;;32.93;14.63;100981.91;5029726;28;20859;-70
2022/01/04 08:02:58;;;;;;;25.50;19.65;;;;;;;34.74;13.27;100988.97;5028883;28;20904;-70
2022/01/04 08:05:26;;;;;;;22.25;20.02;;;;;;;34.60;13.04;100976.91;5028941;28;20414;-70
2022/01/04 08:07:52;;;;;;;16.75;15.10;;;;;;;35.02;12.98;100983.88;5028971;28;20422;-70
2022/01/04 08:10:20;;;;;;;18.23;16.35;;;;;;;34.35;13.55;100972.31;5029238;28;20421;-69
2022/01/04 08:12:47;;;;;;;15.32;13.93;;;;;;;32.89;14.26;100971.75;5029247;28;20430;-70
2022/01/04 08:15:13;;;;;;;14.27;12.87;;;;;;;31.83;14.99;100977.19;5029100;28;20429;-70
2022/01/04 08:17:40;;;;;;;14.30;12.77;;;;;;;31.89;15.04;100973.41;5029461;28;20410;-71
2022/01/04 08:20:11;;;;;;;16.23;14.53;;;;;;;34.55;13.35;100979.66;5028750;28;20426;-72
2022/01/04 08:22:38;;;;;;;44.53;35.80;;;;;;;36.37;12.03;100986.00;5029391;28;20493;-72
2022/01/04 08:25:08;;;;;;;44.85;38.72;;;;;;;37.42;11.11;100974.91;5028777;28;20414;-72
2022/01/04 08:27:35;;;;;;;29.15;25.80;;;;;;;38.26;11.13;100967.59;5028928;28;20525;-72
2022/01/04 08:30:03;;;;;;;21.05;18.90;;;;;;;39.16;9.88;100975.38;5028799;28;20421;-72
2022/01/04 08:32:30;;;;;;;27.95;23.65;;;;;;;39.85;10.03;100969.47;5029126;28;20456;-72
2022/01/04 08:34:57;;;;;;;28.00;22.08;;;;;;;39.87;9.56;100967.25;5029018;28;20489;-72
2022/01/04 08:37:26;;;;;;;25.77;20.90;;;;;;;39.75;9.89;100972.53;5028172;28;20422;-72
2022/01/04 08:39:54;;;;;;;23.33;19.77;;;;;;;39.93;9.27;100970.69;5028921;28;20406;-72
2022/01/04 08:42:22;;;;;;;20.23;18.08;;;;;;;40.40;9.23;100969.06;5028707;28;20410;-71
2022/01/04 08:44:49;;;;;;;18.02;16.40;;;;;;;39.86;9.71;100971.13;5028855;28;20788;-71
2022/01/04 08:47:16;;;;;;;22.73;18.25;;;;;;;40.30;9.46;100966.59;5026477;28;20497;-72
2022/01/04 08:49:43;;;;;;;19.38;17.33;;;;;;;40.70;9.03;100962.91;5029290;28;20492;-72
2022/01/04 08:52:11;;;;;;;19.67;17.77;;;;;;;40.90;9.17;100956.75;5011278;28;20440;-72
2022/01/04 08:54:40;;;;;;;26.23;23.10;;;;;;;41.17;8.96;100941.72;5028649;28;20912;-72
2022/01/04 08:57:07;;;;;;;20.15;18.05;;;;;;;41.13;8.70;100951.81;5027793;28;20920;-72
2022/01/04 08:59:34;;;;;;;18.70;16.90;;;;;;;40.61;9.24;100954.56;5011260;28;20841;-72
2022/01/04 09:02:01;;;;;;;15.52;14.23;;;;;;;39.38;9.63;100938.50;5031873;28;20468;-71
2022/01/04 09:04:28;;;;;;;15.68;14.00;;;;;;;39.63;9.87;100931.53;5031059;28;20560;-72
2022/01/04 09:06:55;;;;;;;15.05;13.65;;;;;;;38.61;10.14;100934.81;5032393;28;20498;-73
2022/01/04 09:09:22;;;;;;;16.33;14.88;;;;;;;37.91;10.55;100922.91;5032485;28;20497;-72
2022/01/04 09:11:51;;;;;;;14.82;13.32;;;;;;;38.54;10.33;100923.34;5032165;28;20999;-71
2022/01/04 09:14:39;;;;;;;16.60;15.10;;;;;;;39.23;9.57;100912.84;5032267;28;20410;-71
2022/01/04 09:19:51;;;;;;;15.18;13.00;;;;;;;37.54;10.79;100923.88;5031907;28;20410;-72
2022/01/04 09:22:18;;;;;;;15.52;14.02;;;;;;;37.64;10.97;100919.00;5014308;28;20917;-72
2022/01/04 09:24:45;;;;;;;13.50;12.20;;;;;;;38.76;9.90;100914.25;5031775;28;20407;-71
2022/01/04 09:27:13;;;;;;;15.18;13.77;;;;;;;38.90;10.14;100908.66;5032101;28;20819;-72
2022/01/04 09:29:40;;;;;;;15.18;13.73;;;;;;;39.30;9.64;100908.78;5032001;28;20414;-72
2022/01/04 09:32:12;;;;;;;15.27;13.77;;;;;;;39.08;9.88;100904.13;5031694;28;20481;-71
2022/01/04 09:34:40;;;;;;;14.65;13.15;;;;;;;39.83;9.83;100902.41;5031659;28;20410;-72
2022/01/04 09:37:07;;;;;;;13.27;11.98;;;;;;;39.36;9.59;100893.66;5031704;28;20502;-72
2022/01/04 09:39:34;;;;;;;12.37;11.10;;;;;;;38.92;10.25;100885.06;5031691;28;20421;-72
2022/01/04 09:42:01;;;;;;;12.57;11.40;;;;;;;38.89;10.22;100880.13;5031540;28;20978;-72
2022/01/04 09:44:30;;;;;;;12.40;11.30;;;;;;;38.79;10.48;100870.16;5031518;28;20454;-71
2022/01/04 09:46:58;;;;;;;12.77;11.47;;;;;;;38.82;9.84;100869.50;5031417;28;20410;-71
2022/01/04 09:49:25;;;;;;;11.77;10.57;;;;;;;39.61;9.52;100856.16;5014025;28;20720;-71
2022/01/04 09:51:52;;;;;;;10.30;9.30;;;;;;;39.29;10.16;100854.53;5031059;28;21011;-72
2022/01/04 09:54:23;;;;;;;16.60;13.98;;;;;;;39.61;9.97;100859.75;5030892;28;20450;-71
2022/01/04 09:56:51;;;;;;;11.55;10.40;;;;;;;39.18;9.60;100851.22;5031137;28;20997;-72
2022/01/04 09:59:18;;;;;;;11.75;10.75;;;;;;;38.57;10.27;100839.69;5031549;28;20417;-72
2022/01/04 10:01:52;;;;;;;11.80;10.60;;;;;;;39.23;9.81;100840.78;5031410;28;20410;-72
2022/01/04 10:04:23;;;;;;;11.70;10.70;;;;;;;39.32;9.60;100834.47;5031428;28;20464;-71
2022/01/04 10:07:01;;;;;;;12.33;11.23;;;;;;;39.01;9.97;100827.81;5030996;28;20410;-71
2022/01/04 10:09:41;;;;;;;12.60;11.35;;;;;;;39.09;9.94;100828.97;5030921;28;20418;-71
2022/01/04 10:12:10;;;;;;;13.05;11.75;;;;;;;38.57;10.22;100834.16;5030264;28;20931;-71
2022/01/04 10:14:40;;;;;;;12.80;11.52;;;;;;;39.00;10.10;100825.34;5030634;28;20459;-71
2022/01/04 10:17:12;;;;;;;12.82;11.63;;;;;;;38.71;10.30;100826.59;5030940;28;20418;-71
2022/01/04 10:19:40;;;;;;;12.60;11.30;;;;;;;37.77;10.81;100823.38;5030804;28;20418;-72
2022/01/04 10:22:18;;;;;;;13.77;12.38;;;;;;;38.41;10.36;100826.16;5031248;28;20410;-71
2022/01/04 10:24:48;;;;;;;13.98;12.55;;;;;;;38.44;10.86;100822.75;5030680;28;20406;-72
2022/01/04 10:27:27;;;;;;;12.43;11.18;;;;;;;38.12;10.85;100814.66;5030848;28;20800;-70
2022/01/04 10:30:15;;;;;;;11.20;10.10;;;;;;;37.48;11.20;100816.19;5030638;28;20414;-71
2022/01/04 10:32:55;;;;;;;12.18;11.07;;;;;;;37.68;11.14;100809.47;5030546;28;21053;-71
2022/01/04 10:35:25;;;;;;;14.02;12.63;;;;;;;37.33;11.31;100799.06;5030819;28;20425;-71
2022/01/04 10:37:53;;;;;;;12.60;11.37;;;;;;;37.36;11.38;100787.44;5030759;28;20414;-71
2022/01/04 10:40:20;;;;;;;11.40;10.30;;;;;;;38.13;10.93;100786.69;5030142;28;20418;-71
2022/01/04 10:42:47;;;;;;;9.68;8.32;;;;;;;38.24;10.62;100778.97;5030059;28;20475;-71
2022/01/04 10:45:31;;;;;;;12.13;9.35;;;;;;;38.42;10.58;100782.69;5030111;28;20513;-71
2022/01/04 10:48:15;;;;;;;9.53;8.60;;;;;;;37.14;11.23;100786.16;5030230;28;21002;-71
2022/01/04 10:50:43;;;;;;;9.38;8.48;;;;;;;36.36;11.64;100780.25;5030374;28;20485;-72
2022/01/04 10:53:23;;;;;;;9.80;8.15;;;;;;;35.50;12.50;100774.69;5030023;28;20470;-72
2022/01/04 10:55:50;;;;;;;10.68;8.25;;;;;;;32.92;14.23;100768.16;5030263;28;20927;-72
2022/01/04 10:58:32;;;;;;;9.23;6.55;;;;;;;32.00;15.04;100765.28;5030321;28;20912;-71
2022/01/04 11:01:02;;;;;;;10.77;7.38;;;;;;;32.86;14.55;100767.34;5030367;28;20419;-72
2022/01/04 11:03:32;;;;;;;8.77;6.68;;;;;;;32.86;14.61;100755.53;5029792;28;20418;-71
2022/01/04 11:06:18;;;;;;;7.10;6.27;;;;;;;32.42;14.67;100756.88;5029832;28;20407;-71
2022/01/04 11:08:45;;;;;;;6.32;5.72;;;;;;;32.26;15.03;100750.53;5029564;28;20884;-71
2022/01/04 11:11:12;;;;;;;6.65;6.05;;;;;;;32.26;15.11;100750.53;5012461;28;20777;-71
2022/01/04 11:13:40;;;;;;;15.60;7.35;;;;;;;32.40;15.26;100747.25;5029944;28;20457;-71
2022/01/04 11:16:08;;;;;;;9.43;8.52;;;;;;;29.68;17.62;100734.31;5029124;28;20450;-71
2022/01/04 11:18:40;;;;;;;11.50;9.50;;;;;;;30.18;16.89;100737.94;5029347;28;20418;-71
2022/01/04 11:21:09;;;;;;;14.55;11.38;;;;;;;29.64;17.35;100735.91;5029180;28;20970;-71
2022/01/04 11:23:37;;;;;;;12.90;11.45;;;;;;;29.09;17.96;100724.75;5029180;28;20836;-71
2022/01/04 11:26:05;;;;;;;14.63;11.95;;;;;;;28.55;18.53;100725.28;5029916;28;20411;-72